sensor_id;sensor_type;location;lat;lon;timestamp;temperature;humidity
18043;DHT22;9146;48.074;11.968;2023-12-20T00:46:44;3.70;99.90
18043;DHT22;9146;48.074;11.968;2023-12-20T00:49:12;3.60;99.90
18043;DHT22;9146;48.074;11.968;2023-12-20T00:51:39;3.60;99.90
18043;DHT22;9146;48.074;11.968;2023-12-20T00:54:06;3.50;99.90
18043;DHT22;9146;48.074;11.968;2023-12-20T00:56:33;3.60;99.90
18043;DHT22;9146;48.074;11.968;2023-12-20T00:59:00;3.60;99.90
18043;DHT22;9146;48.074;11.968;2023-12-20T01:01:26;3.60;99.90
18043;DHT22;9146;48.074;11.968;2023-12-20T01:03:53;3.60;99.90
18043;DHT22;9146;48.074;11.968;2023-12-20T01:06:22;3.60;99.90
18043;DHT22;9146;48.074;11.968;2023-12-20T01:08:49;3.60;99.90
18043;DHT22;9146;48.074;11.968;2023-12-20T01:11:16;3.50;99.90
18043;DHT22;9146;48.074;11.968;2023-12-20T01:13:42;3.50;99.90
18043;DHT22;9146;48.074;11.968;2023-12-20T01:16:10;3.50;99.90
18043;DHT22;9146;48.074;11.968;2023-12-20T01:18:37;3.40;99.90
18043;DHT22;9146;48.074;11.968;2023-12-20T01:21:05;3.40;99.90
18043;DHT22;9146;48.074;11.968;2023-12-20T01:23:33;3.40;99.90
18043;DHT22;9146;48.074;11.968;2023-12-20T01:26:00;3.40;99.90
18043;DHT22;9146;48.074;11.968;2023-12-20T01:28:28;3.40;99.90
18043;DHT22;9146;48.074;11.968;2023-12-20T01:30:55;3.50;99.90
18043;DHT22;9146;48.074;11.968;2023-12-20T01:33:22;3.50;99.90
18043;DHT22;9146;48.074;11.968;2023-12-20T01:35:50;3.50;99.90
18043;DHT22;9146;48.074;11.968;2023-12-20T01:38:16;3.50;99.90
18043;DHT22;9146;48.074;11.968;2023-12-20T01:40:46;3.50;99.90
18043;DHT22;9146;48.074;11.968;2023-12-20T01:43:13;3.40;99.90
18043;DHT22;9146;48.074;11.968;2023-12-20T01:45:40;3.40;99.90
18043;DHT22;9146;48.074;11.968;2023-12-20T01:48:08;3.30;99.90
18043;DHT22;9146;48.074;11.968;2023-12-20T01:50:36;3.30;99.90
18043;DHT22;9146;48.074;11.968;2023-12-20T01:53:04;3.30;99.90
18043;DHT22;9146;48.074;11.968;2023-12-20T01:55:33;3.30;99.90
18043;DHT22;9146;48.074;11.968;2023-12-20T01:58:03;3.40;99.90
18043;DHT22;9146;48.074;11.968;2023-12-20T02:00:31;3.50;99.90
18043;DHT22;9146;48.074;11.968;2023-12-20T02:03:01;3.70;99.90
18043;DHT22;9146;48.074;11.968;2023-12-20T02:05:29;3.80;99.90
18043;DHT22;9146;48.074;11.968;2023-12-20T02:07:56;3.90;99.90
18043;DHT22;9146;48.074;11.968;2023-12-20T02:10:24;4.00;99.90
18043;DHT22;9146;48.074;11.968;2023-12-20T02:12:51;4.10;99.90
18043;DHT22;9146;48.074;11.968;2023-12-20T02:15:19;4.20;99.90
18043;DHT22;9146;48.074;11.968;2023-12-20T02:17:47;4.20;99.90
18043;DHT22;9146;48.074;11.968;2023-12-20T02:20:14;4.30;99.90
18043;DHT22;9146;48.074;11.968;2023-12-20T02:22:43;4.30;99.90
18043;DHT22;9146;48.074;11.968;2023-12-20T02:25:09;4.30;99.90
18043;DHT22;9146;48.074;11.968;2023-12-20T02:27:36;4.30;99.90
18043;DHT22;9146;48.074;11.968;2023-12-20T02:30:04;4.30;99.90
18043;DHT22;9146;48.074;11.968;2023-12-20T02:32:31;4.30;99.90
18043;DHT22;9146;48.074;11.968;2023-12-20T02:34:58;4.20;99.90
18043;DHT22;9146;48.074;11.968;2023-12-20T02:37:25;4.10;99.90
18043;DHT22;9146;48.074;11.968;2023-12-20T02:39:54;4.10;99.90
18043;DHT22;9146;48.074;11.968;2023-12-20T02:42:20;4.00;99.90
18043;DHT22;9146;48.074;11.968;2023-12-20T02:44:47;4.00;99.90
18043;DHT22;9146;48.074;11.968;2023-12-20T02:47:14;4.00;99.90
18043;DHT22;9146;48.074;11.968;2023-12-20T02:49:41;4.00;99.90
18043;DHT22;9146;48.074;11.968;2023-12-20T02:52:08;4.00;99.90
18043;DHT22;9146;48.074;11.968;2023-12-20T02:54:35;4.00;99.90
18043;DHT22;9146;48.074;11.968;2023-12-20T02:57:03;4.00;99.90
18043;DHT22;9146;48.074;11.968;2023-12-20T02:59:30;4.00;99.90
18043;DHT22;9146;48.074;11.968;2023-12-20T03:01:57;4.00;99.90
18043;DHT22;9146;48.074;11.968;2023-12-20T03:04:24;4.00;99.90
18043;DHT22;9146;48.074;11.968;2023-12-20T03:06:51;4.00;99.90
18043;DHT22;9146;48.074;11.968;2023-12-20T03:09:18;4.00;99.90
18043;DHT22;9146;48.074;11.968;2023-12-20T03:11:45;4.00;99.90
18043;DHT22;9146;48.074;11.968;2023-12-20T03:14:13;4.00;99.90
18043;DHT22;9146;48.074;11.968;2023-12-20T03:16:40;4.10;99.90
18043;DHT22;9146;48.074;11.968;2023-12-20T03:19:07;4.10;99.90
18043;DHT22;9146;48.074;11.968;2023-12-20T03:21:34;4.10;99.90
18043;DHT22;9146;48.074;11.968;2023-12-20T03:24:00;4.10;99.90
18043;DHT22;9146;48.074;11.968;2023-12-20T03:26:28;4.20;99.90
18043;DHT22;9146;48.074;11.968;2023-12-20T03:28:55;4.20;99.90
18043;DHT22;9146;48.074;11.968;2023-12-20T03:31:23;4.20;99.90
18043;DHT22;9146;48.074;11.968;2023-12-20T03:33:50;4.30;99.90
18043;DHT22;9146;48.074;11.968;2023-12-20T03:36:19;4.30;99.90
18043;DHT22;9146;48.074;11.968;2023-12-20T03:38:46;4.30;99.90
18043;DHT22;9146;48.074;11.968;2023-12-20T03:41:14;4.40;99.90
18043;DHT22;9146;48.074;11.968;2023-12-20T03:43:41;4.40;99.90
18043;DHT22;9146;48.074;11.968;2023-12-20T03:46:09;4.20;99.90
18043;DHT22;9146;48.074;11.968;2023-12-20T03:48:38;4.50;99.90
18043;DHT22;9146;48.074;11.968;2023-12-20T03:51:05;4.50;99.90
18043;DHT22;9146;48.074;11.968;2023-12-20T03:53:32;4.50;99.90
18043;DHT22;9146;48.074;11.968;2023-12-20T03:55:59;4.60;99.90
18043;DHT22;9146;48.074;11.968;2023-12-20T03:58:26;4.40;99.90
18043;DHT22;9146;48.074;11.968;2023-12-20T04:00:53;4.70;99.90
18043;DHT22;9146;48.074;11.968;2023-12-20T04:03:19;4.90;99.90
18043;DHT22;9146;48.074;11.968;2023-12-20T04:05:48;5.00;99.90
18043;DHT22;9146;48.074;11.968;2023-12-20T04:08:14;5.00;99.90
18043;DHT22;9146;48.074;11.968;2023-12-20T04:10:41;5.00;99.90
18043;DHT22;9146;48.074;11.968;2023-12-20T04:13:08;5.10;99.90
18043;DHT22;9146;48.074;11.968;2023-12-20T04:15:35;5.20;99.90
18043;DHT22;9146;48.074;11.968;2023-12-20T04:18:02;5.20;99.90
18043;DHT22;9146;48.074;11.968;2023-12-20T04:20:29;5.30;99.90
18043;DHT22;9146;48.074;11.968;2023-12-20T04:22:58;5.30;99.90
18043;DHT22;9146;48.074;11.968;2023-12-20T04:25:25;5.30;99.90
18043;DHT22;9146;48.074;11.968;2023-12-20T04:27:52;5.30;99.90
18043;DHT22;9146;48.074;11.968;2023-12-20T04:30:18;5.40;99.90
18043;DHT22;9146;48.074;11.968;2023-12-20T04:32:45;5.40;99.90
18043;DHT22;9146;48.074;11.968;2023-12-20T04:35:12;5.30;99.90
18043;DHT22;9146;48.074;11.968;2023-12-20T04:37:39;5.40;99.90
18043;DHT22;9146;48.074;11.968;2023-12-20T04:40:09;5.30;99.90
18043;DHT22;9146;48.074;11.968;2023-12-20T04:42:37;5.30;99.90
18043;DHT22;9146;48.074;11.968;2023-12-20T04:45:04;5.30;99.90
18043;DHT22;9146;48.074;11.968;2023-12-20T04:47:31;5.40;99.90
18043;DHT22;9146;48.074;11.968;2023-12-20T04:49:58;5.30;99.90
18043;DHT22;9146;48.074;11.968;2023-12-20T04:52:25;5.30;99.90
18043;DHT22;9146;48.074;11.968;2023-12-20T04:54:52;5.20;99.90
18043;DHT22;9146;48.074;11.968;2023-12-20T04:57:21;5.20;99.90
18043;DHT22;9146;48.074;11.968;2023-12-20T04:59:48;5.20;99.90
18043;DHT22;9146;48.074;11.968;2023-12-20T05:02:15;5.30;99.90
18043;DHT22;9146;48.074;11.968;2023-12-20T05:04:42;5.30;99.90
18043;DHT22;9146;48.074;11.968;2023-12-20T05:07:08;5.40;99.90
18043;DHT22;9146;48.074;11.968;2023-12-20T05:09:35;5.40;99.90
18043;DHT22;9146;48.074;11.968;2023-12-20T05:12:03;5.40;99.90
18043;DHT22;9146;48.074;11.968;2023-12-20T05:14:31;5.40;99.90
18043;DHT22;9146;48.074;11.968;2023-12-20T05:16:58;5.40;99.90
18043;DHT22;9146;48.074;11.968;2023-12-20T05:19:25;5.50;99.90
18043;DHT22;9146;48.074;11.968;2023-12-20T05:21:52;5.50;99.90
18043;DHT22;9146;48.074;11.968;2023-12-20T05:24:19;5.40;99.90
18043;DHT22;9146;48.074;11.968;2023-12-20T05:26:46;5.40;99.90
18043;DHT22;9146;48.074;11.968;2023-12-20T05:29:13;5.30;99.90
18043;DHT22;9146;48.074;11.968;2023-12-20T05:31:41;5.30;99.90
18043;DHT22;9146;48.074;11.968;2023-12-20T05:34:08;5.20;99.90
18043;DHT22;9146;48.074;11.968;2023-12-20T05:36:35;5.20;99.90
18043;DHT22;9146;48.074;11.968;2023-12-20T05:39:02;5.00;99.90
18043;DHT22;9146;48.074;11.968;2023-12-20T05:41:30;5.10;99.90
18043;DHT22;9146;48.074;11.968;2023-12-20T05:43:57;5.00;99.90
18043;DHT22;9146;48.074;11.968;2023-12-20T05:46:25;4.90;99.90
18043;DHT22;9146;48.074;11.968;2023-12-20T05:48:54;4.90;99.90
18043;DHT22;9146;48.074;11.968;2023-12-20T05:51:21;4.90;99.90
18043;DHT22;9146;48.074;11.968;2023-12-20T05:53:48;4.80;99.90
18043;DHT22;9146;48.074;11.968;2023-12-20T05:56:15;4.70;99.90
18043;DHT22;9146;48.074;11.968;2023-12-20T05:58:42;4.60;99.90
18043;DHT22;9146;48.074;11.968;2023-12-20T06:01:09;4.60;99.90
18043;DHT22;9146;48.074;11.968;2023-12-20T06:03:36;4.50;99.90
18043;DHT22;9146;48.074;11.968;2023-12-20T06:06:06;4.50;99.90
18043;DHT22;9146;48.074;11.968;2023-12-20T06:08:33;4.40;99.90
18043;DHT22;9146;48.074;11.968;2023-12-20T06:11:00;4.40;99.90
18043;DHT22;9146;48.074;11.968;2023-12-20T06:13:27;4.30;99.90
18043;DHT22;9146;48.074;11.968;2023-12-20T06:15:54;4.30;99.90
18043;DHT22;9146;48.074;11.968;2023-12-20T06:18:22;4.30;99.90
18043;DHT22;9146;48.074;11.968;2023-12-20T06:20:50;4.30;99.90
18043;DHT22;9146;48.074;11.968;2023-12-20T06:23:18;4.30;99.90
18043;DHT22;9146;48.074;11.968;2023-12-20T06:25:45;4.20;99.90
18043;DHT22;9146;48.074;11.968;2023-12-20T06:28:12;4.20;99.90
18043;DHT22;9146;48.074;11.968;2023-12-20T06:30:40;4.20;99.90
18043;DHT22;9146;48.074;11.968;2023-12-20T06:33:07;4.20;99.90
18043;DHT22;9146;48.074;11.968;2023-12-20T06:35:35;4.10;99.90
18043;DHT22;9146;48.074;11.968;2023-12-20T06:38:02;4.10;99.90
18043;DHT22;9146;48.074;11.968;2023-12-20T06:40:31;4.10;99.90
18043;DHT22;9146;48.074;11.968;2023-12-20T06:42:58;4.00;99.90
18043;DHT22;9146;48.074;11.968;2023-12-20T06:45:25;4.00;99.90
18043;DHT22;9146;48.074;11.968;2023-12-20T06:47:52;4.00;99.90
18043;DHT22;9146;48.074;11.968;2023-12-20T06:50:20;4.00;99.90
18043;DHT22;9146;48.074;11.968;2023-12-20T06:52:47;4.00;99.90
18043;DHT22;9146;48.074;11.968;2023-12-20T06:55:14;4.00;99.90
18043;DHT22;9146;48.074;11.968;2023-12-20T06:57:42;3.90;99.90
18043;DHT22;9146;48.074;11.968;2023-12-20T07:00:11;4.00;99.90
18043;DHT22;9146;48.074;11.968;2023-12-20T07:02:38;3.80;99.90
18043;DHT22;9146;48.074;11.968;2023-12-20T07:05:07;3.80;99.90
18043;DHT22;9146;48.074;11.968;2023-12-20T07:07:34;3.70;99.90
18043;DHT22;9146;48.074;11.968;2023-12-20T07:10:01;3.70;99.90
18043;DHT22;9146;48.074;11.968;2023-12-20T07:12:27;3.70;99.90
18043;DHT22;9146;48.074;11.968;2023-12-20T07:14:56;3.70;99.90
18043;DHT22;9146;48.074;11.968;2023-12-20T07:17:23;3.60;99.90
18043;DHT22;9146;48.074;11.968;2023-12-20T07:19:50;3.60;99.90
18043;DHT22;9146;48.074;11.968;2023-12-20T07:22:17;3.60;99.90
18043;DHT22;9146;48.074;11.968;2023-12-20T07:24:44;3.50;99.90
18043;DHT22;9146;48.074;11.968;2023-12-20T07:27:11;3.50;99.90
18043;DHT22;9146;48.074;11.968;2023-12-20T07:29:38;3.50;99.90
18043;DHT22;9146;48.074;11.968;2023-12-20T07:32:07;3.40;99.90
18043;DHT22;9146;48.074;11.968;2023-12-20T07:34:35;3.40;99.90
18043;DHT22;9146;48.074;11.968;2023-12-20T07:37:03;3.40;99.90
18043;DHT22;9146;48.074;11.968;2023-12-20T07:39:30;3.40;99.90
18043;DHT22;9146;48.074;11.968;2023-12-20T07:41:57;3.40;99.90
18043;DHT22;9146;48.074;11.968;2023-12-20T07:44:24;3.40;99.90
18043;DHT22;9146;48.074;11.968;2023-12-20T07:46:51;3.40;99.90
18043;DHT22;9146;48.074;11.968;2023-12-20T07:49:20;3.40;99.90
18043;DHT22;9146;48.074;11.968;2023-12-20T07:51:47;3.40;99.90
18043;DHT22;9146;48.074;11.968;2023-12-20T07:54:14;3.40;99.90
18043;DHT22;9146;48.074;11.968;2023-12-20T07:56:41;3.40;99.90
18043;DHT22;9146;48.074;11.968;2023-12-20T07:59:08;3.40;99.90
18043;DHT22;9146;48.074;11.968;2023-12-20T08:01:38;3.40;99.90
18043;DHT22;9146;48.074;11.968;2023-12-20T08:04:05;3.40;99.90
18043;DHT22;9146;48.074;11.968;2023-12-20T08:06:33;3.40;99.90
18043;DHT22;9146;48.074;11.968;2023-12-20T08:09:00;3.40;99.90
18043;DHT22;9146;48.074;11.968;2023-12-20T08:11:28;3.40;99.90
18043;DHT22;9146;48.074;11.968;2023-12-20T08:13:55;3.40;99.90
18043;DHT22;9146;48.074;11.968;2023-12-20T08:16:22;3.30;99.90
18043;DHT22;9146;48.074;11.968;2023-12-20T08:18:50;3.40;99.90
18043;DHT22;9146;48.074;11.968;2023-12-20T08:21:17;3.40;99.90
18043;DHT22;9146;48.074;11.968;2023-12-20T08:23:47;3.40;99.90
18043;DHT22;9146;48.074;11.968;2023-12-20T08:26:18;3.50;99.90
18043;DHT22;9146;48.074;11.968;2023-12-20T08:28:47;3.50;99.90
18043;DHT22;9146;48.074;11.968;2023-12-20T08:31:14;3.50;99.90
18043;DHT22;9146;48.074;11.968;2023-12-20T08:36:09;3.50;99.90
18043;DHT22;9146;48.074;11.968;2023-12-20T08:38:36;3.50;99.90
18043;DHT22;9146;48.074;11.968;2023-12-20T08:41:05;3.50;99.90
18043;DHT22;9146;48.074;11.968;2023-12-20T08:43:32;3.50;99.90
18043;DHT22;9146;48.074;11.968;2023-12-20T08:46:00;3.60;99.90
18043;DHT22;9146;48.074;11.968;2023-12-20T08:48:27;3.60;99.90
18043;DHT22;9146;48.074;11.968;2023-12-20T08:50:54;3.60;99.90
18043;DHT22;9146;48.074;11.968;2023-12-20T08:53:21;3.60;99.90
18043;DHT22;9146;48.074;11.968;2023-12-20T08:55:48;3.60;99.90
18043;DHT22;9146;48.074;11.968;2023-12-20T08:58:16;3.60;99.90
18043;DHT22;9146;48.074;11.968;2023-12-20T09:00:44;3.60;99.90
18043;DHT22;9146;48.074;11.968;2023-12-20T09:03:11;3.60;99.90
18043;DHT22;9146;48.074;11.968;2023-12-20T09:05:38;3.60;99.90
18043;DHT22;9146;48.074;11.968;2023-12-20T09:08:05;3.60;99.90
18043;DHT22;9146;48.074;11.968;2023-12-20T09:10:33;3.60;99.90
18043;DHT22;9146;48.074;11.968;2023-12-20T09:13:00;3.60;99.90
18043;DHT22;9146;48.074;11.968;2023-12-20T09:15:29;3.60;99.90
18043;DHT22;9146;48.074;11.968;2023-12-20T09:17:56;3.60;99.90
18043;DHT22;9146;48.074;11.968;2023-12-20T09:20:24;3.60;99.90
18043;DHT22;9146;48.074;11.968;2023-12-20T09:22:50;3.60;99.90
18043;DHT22;9146;48.074;11.968;2023-12-20T09:25:17;3.60;99.90
18043;DHT22;9146;48.074;11.968;2023-12-20T09:27:44;3.60;99.90
18043;DHT22;9146;48.074;11.968;2023-12-20T09:30:11;3.70;99.90
18043;DHT22;9146;48.074;11.968;2023-12-20T09:32:40;3.70;99.90
18043;DHT22;9146;48.074;11.968;2023-12-20T09:35:08;3.80;99.90
18043;DHT22;9146;48.074;11.968;2023-12-20T09:37:35;3.80;99.90
18043;DHT22;9146;48.074;11.968;2023-12-20T09:40:02;3.80;99.90
18043;DHT22;9146;48.074;11.968;2023-12-20T09:42:33;3.80;99.90
18043;DHT22;9146;48.074;11.968;2023-12-20T09:45:06;3.80;99.90
18043;DHT22;9146;48.074;11.968;2023-12-20T09:47:35;3.80;99.90
18043;DHT22;9146;48.074;11.968;2023-12-20T09:50:04;3.80;99.90
18043;DHT22;9146;48.074;11.968;2023-12-20T09:52:32;3.80;99.90
18043;DHT22;9146;48.074;11.968;2023-12-20T09:55:01;3.80;99.90
18043;DHT22;9146;48.074;11.968;2023-12-20T09:57:31;3.80;99.90
18043;DHT22;9146;48.074;11.968;2023-12-20T09:59:58;3.80;99.90
18043;DHT22;9146;48.074;11.968;2023-12-20T10:02:25;3.80;99.90
18043;DHT22;9146;48.074;11.968;2023-12-20T10:04:54;3.90;99.90
18043;DHT22;9146;48.074;11.968;2023-12-20T10:07:22;3.80;99.90
18043;DHT22;9146;48.074;11.968;2023-12-20T10:09:51;3.80;99.90
18043;DHT22;9146;48.074;11.968;2023-12-20T10:12:20;3.80;99.90
18043;DHT22;9146;48.074;11.968;2023-12-20T10:14:47;3.80;99.90
18043;DHT22;9146;48.074;11.968;2023-12-20T10:17:14;3.80;99.90
18043;DHT22;9146;48.074;11.968;2023-12-20T10:19:43;3.80;99.90
18043;DHT22;9146;48.074;11.968;2023-12-20T10:22:10;3.80;99.90
18043;DHT22;9146;48.074;11.968;2023-12-20T10:24:40;3.80;99.90
18043;DHT22;9146;48.074;11.968;2023-12-20T10:27:08;3.80;99.90
18043;DHT22;9146;48.074;11.968;2023-12-20T10:29:36;3.80;99.90
18043;DHT22;9146;48.074;11.968;2023-12-20T10:32:23;3.80;99.90
18043;DHT22;9146;48.074;11.968;2023-12-20T10:34:50;3.80;99.90
18043;DHT22;9146;48.074;11.968;2023-12-20T10:37:17;3.80;99.90
18043;DHT22;9146;48.074;11.968;2023-12-20T10:39:49;3.80;99.90
18043;DHT22;9146;48.074;11.968;2023-12-20T10:42:17;3.80;99.90
18043;DHT22;9146;48.074;11.968;2023-12-20T10:44:46;3.80;99.90
18043;DHT22;9146;48.074;11.968;2023-12-20T10:47:13;3.90;99.90
18043;DHT22;9146;48.074;11.968;2023-12-20T10:49:42;3.90;99.90
18043;DHT22;9146;48.074;11.968;2023-12-20T10:52:10;3.90;99.90
18043;DHT22;9146;48.074;11.968;2023-12-20T10:54:38;3.90;99.90
18043;DHT22;9146;48.074;11.968;2023-12-20T10:57:08;3.90;99.90
18043;DHT22;9146;48.074;11.968;2023-12-20T10:59:37;4.00;99.90
18043;DHT22;9146;48.074;11.968;2023-12-20T11:02:04;4.00;99.90
18043;DHT22;9146;48.074;11.968;2023-12-20T11:04:39;4.00;99.90
18043;DHT22;9146;48.074;11.968;2023-12-20T11:07:17;4.10;99.90
18043;DHT22;9146;48.074;11.968;2023-12-20T11:09:54;4.20;99.90
18043;DHT22;9146;48.074;11.968;2023-12-20T11:12:32;4.20;99.90
18043;DHT22;9146;48.074;11.968;2023-12-20T11:15:03;4.20;99.90
18043;DHT22;9146;48.074;11.968;2023-12-20T11:17:31;4.20;99.90
18043;DHT22;9146;48.074;11.968;2023-12-20T11:20:09;4.30;99.90
18043;DHT22;9146;48.074;11.968;2023-12-20T11:22:40;4.40;99.90
18043;DHT22;9146;48.074;11.968;2023-12-20T11:25:17;4.40;99.90
18043;DHT22;9146;48.074;11.968;2023-12-20T11:28:06;4.40;99.90
18043;DHT22;9146;48.074;11.968;2023-12-20T11:30:41;4.40;99.90
18043;DHT22;9146;48.074;11.968;2023-12-20T11:33:08;4.30;99.90
18043;DHT22;9146;48.074;11.968;2023-12-20T11:35:36;4.40;99.90
18043;DHT22;9146;48.074;11.968;2023-12-20T11:38:07;4.40;99.90
18043;DHT22;9146;48.074;11.968;2023-12-20T11:40:35;4.40;99.90
18043;DHT22;9146;48.074;11.968;2023-12-20T11:43:04;4.30;99.90
18043;DHT22;9146;48.074;11.968;2023-12-20T11:45:31;4.30;99.90
18043;DHT22;9146;48.074;11.968;2023-12-20T11:47:58;4.30;99.90
18043;DHT22;9146;48.074;11.968;2023-12-20T11:50:25;4.30;99.90
18043;DHT22;9146;48.074;11.968;2023-12-20T11:52:52;4.30;99.90
18043;DHT22;9146;48.074;11.968;2023-12-20T11:55:20;4.30;99.90
18043;DHT22;9146;48.074;11.968;2023-12-20T11:57:48;4.40;99.90
18043;DHT22;9146;48.074;11.968;2023-12-20T12:00:18;4.40;99.90
18043;DHT22;9146;48.074;11.968;2023-12-20T12:02:56;4.40;99.90
18043;DHT22;9146;48.074;11.968;2023-12-20T12:05:24;4.40;99.90
18043;DHT22;9146;48.074;11.968;2023-12-20T12:07:51;4.50;99.90
18043;DHT22;9146;48.074;11.968;2023-12-20T12:10:18;4.60;99.90
18043;DHT22;9146;48.074;11.968;2023-12-20T12:12:46;4.60;99.90
18043;DHT22;9146;48.074;11.968;2023-12-20T12:15:13;4.60;99.90
18043;DHT22;9146;48.074;11.968;2023-12-20T12:17:42;4.60;99.90
18043;DHT22;9146;48.074;11.968;2023-12-20T12:20:09;4.60;99.90
18043;DHT22;9146;48.074;11.968;2023-12-20T12:22:37;4.70;99.90
18043;DHT22;9146;48.074;11.968;2023-12-20T12:25:11;4.70;99.90
18043;DHT22;9146;48.074;11.968;2023-12-20T12:27:40;4.80;99.90
18043;DHT22;9146;48.074;11.968;2023-12-20T12:30:09;4.70;99.90
18043;DHT22;9146;48.074;11.968;2023-12-20T12:32:39;4.90;99.90
18043;DHT22;9146;48.074;11.968;2023-12-20T12:35:08;4.80;99.90
18043;DHT22;9146;48.074;11.968;2023-12-20T12:37:37;4.80;99.90
18043;DHT22;9146;48.074;11.968;2023-12-20T12:40:06;4.80;99.90
18043;DHT22;9146;48.074;11.968;2023-12-20T12:42:33;4.80;99.90
18043;DHT22;9146;48.074;11.968;2023-12-20T12:45:00;4.80;99.90
18043;DHT22;9146;48.074;11.968;2023-12-20T12:47:26;4.70;99.90
18043;DHT22;9146;48.074;11.968;2023-12-20T12:49:54;4.70;99.90
18043;DHT22;9146;48.074;11.968;2023-12-20T12:52:23;4.80;99.90
18043;DHT22;9146;48.074;11.968;2023-12-20T12:54:50;4.70;99.90
18043;DHT22;9146;48.074;11.968;2023-12-20T12:57:16;4.80;99.90
18043;DHT22;9146;48.074;11.968;2023-12-20T12:59:43;4.70;99.90
18043;DHT22;9146;48.074;11.968;2023-12-20T13:02:11;4.70;99.90
18043;DHT22;9146;48.074;11.968;2023-12-20T13:04:38;4.60;99.90
18043;DHT22;9146;48.074;11.968;2023-12-20T13:07:05;4.60;99.90
18043;DHT22;9146;48.074;11.968;2023-12-20T13:09:34;4.50;99.90
18043;DHT22;9146;48.074;11.968;2023-12-20T13:12:01;4.50;99.90
18043;DHT22;9146;48.074;11.968;2023-12-20T13:14:31;4.40;99.90
18043;DHT22;9146;48.074;11.968;2023-12-20T13:16:58;4.40;99.90
18043;DHT22;9146;48.074;11.968;2023-12-20T13:19:25;4.40;99.90
18043;DHT22;9146;48.074;11.968;2023-12-20T13:21:52;4.40;99.90
18043;DHT22;9146;48.074;11.968;2023-12-20T13:24:20;4.40;99.90
18043;DHT22;9146;48.074;11.968;2023-12-20T13:26:48;4.40;99.90
18043;DHT22;9146;48.074;11.968;2023-12-20T13:29:16;4.30;99.90
18043;DHT22;9146;48.074;11.968;2023-12-20T13:31:42;4.40;99.90
18043;DHT22;9146;48.074;11.968;2023-12-20T13:34:09;4.30;99.90
18043;DHT22;9146;48.074;11.968;2023-12-20T13:36:36;4.30;99.90
18043;DHT22;9146;48.074;11.968;2023-12-20T13:39:04;4.30;99.90
18043;DHT22;9146;48.074;11.968;2023-12-20T13:41:32;4.40;99.90
18043;DHT22;9146;48.074;11.968;2023-12-20T13:44:00;4.40;99.90
18043;DHT22;9146;48.074;11.968;2023-12-20T13:46:29;4.40;99.90
18043;DHT22;9146;48.074;11.968;2023-12-20T13:48:55;4.30;99.90
18043;DHT22;9146;48.074;11.968;2023-12-20T13:51:22;4.30;99.90
18043;DHT22;9146;48.074;11.968;2023-12-20T13:53:49;4.10;99.90
18043;DHT22;9146;48.074;11.968;2023-12-20T13:56:16;3.90;99.90
18043;DHT22;9146;48.074;11.968;2023-12-20T13:58:45;3.70;99.90
18043;DHT22;9146;48.074;11.968;2023-12-20T14:01:14;3.70;99.90
18043;DHT22;9146;48.074;11.968;2023-12-20T14:03:41;3.50;99.90
18043;DHT22;9146;48.074;11.968;2023-12-20T14:06:08;3.60;99.90
18043;DHT22;9146;48.074;11.968;2023-12-20T14:08:35;3.50;99.90
18043;DHT22;9146;48.074;11.968;2023-12-20T14:11:03;3.50;99.90
18043;DHT22;9146;48.074;11.968;2023-12-20T14:13:30;3.50;99.90
18043;DHT22;9146;48.074;11.968;2023-12-20T14:15:57;3.30;99.90
18043;DHT22;9146;48.074;11.968;2023-12-20T14:18:27;3.30;99.90
18043;DHT22;9146;48.074;11.968;2023-12-20T14:20:56;3.20;99.90
18043;DHT22;9146;48.074;11.968;2023-12-20T14:23:23;3.20;99.90
18043;DHT22;9146;48.074;11.968;2023-12-20T14:25:50;3.30;99.90
18043;DHT22;9146;48.074;11.968;2023-12-20T14:28:16;3.20;99.90
18043;DHT22;9146;48.074;11.968;2023-12-20T14:30:43;3.20;99.90
18043;DHT22;9146;48.074;11.968;2023-12-20T14:33:10;3.10;99.90
18043;DHT22;9146;48.074;11.968;2023-12-20T14:35:39;3.20;99.90
18043;DHT22;9146;48.074;11.968;2023-12-20T14:38:08;3.10;99.90
18043;DHT22;9146;48.074;11.968;2023-12-20T14:40:34;3.10;99.90
18043;DHT22;9146;48.074;11.968;2023-12-20T14:43:01;3.10;99.90
18043;DHT22;9146;48.074;11.968;2023-12-20T14:45:29;3.00;99.90
18043;DHT22;9146;48.074;11.968;2023-12-20T14:47:56;3.00;99.90
18043;DHT22;9146;48.074;11.968;2023-12-20T14:50:24;3.00;99.90
18043;DHT22;9146;48.074;11.968;2023-12-20T14:52:52;2.90;99.90
18043;DHT22;9146;48.074;11.968;2023-12-20T14:55:21;2.90;99.90
18043;DHT22;9146;48.074;11.968;2023-12-20T14:57:47;2.90;99.90
18043;DHT22;9146;48.074;11.968;2023-12-20T15:00:15;2.90;99.90
18043;DHT22;9146;48.074;11.968;2023-12-20T15:02:42;2.90;99.90
18043;DHT22;9146;48.074;11.968;2023-12-20T15:05:09;2.80;99.90
18043;DHT22;9146;48.074;11.968;2023-12-20T15:07:36;2.80;99.90
18043;DHT22;9146;48.074;11.968;2023-12-20T15:10:05;3.00;99.90
18043;DHT22;9146;48.074;11.968;2023-12-20T15:12:32;3.00;99.90
18043;DHT22;9146;48.074;11.968;2023-12-20T15:15:00;2.90;99.90
18043;DHT22;9146;48.074;11.968;2023-12-20T15:17:27;2.90;99.90
18043;DHT22;9146;48.074;11.968;2023-12-20T15:19:53;2.90;99.90
18043;DHT22;9146;48.074;11.968;2023-12-20T15:22:21;2.90;99.90
18043;DHT22;9146;48.074;11.968;2023-12-20T15:24:49;3.00;99.90
18043;DHT22;9146;48.074;11.968;2023-12-20T15:27:19;2.90;99.90
18043;DHT22;9146;48.074;11.968;2023-12-20T15:29:46;2.90;99.90
18043;DHT22;9146;48.074;11.968;2023-12-20T15:32:15;2.90;99.90
18043;DHT22;9146;48.074;11.968;2023-12-20T15:34:44;2.90;99.90
18043;DHT22;9146;48.074;11.968;2023-12-20T15:37:11;2.90;99.90
18043;DHT22;9146;48.074;11.968;2023-12-20T15:39:38;2.80;99.90
18043;DHT22;9146;48.074;11.968;2023-12-20T15:42:05;2.80;99.90
18043;DHT22;9146;48.074;11.968;2023-12-20T15:44:34;2.80;99.90
18043;DHT22;9146;48.074;11.968;2023-12-20T15:47:01;2.80;99.90
18043;DHT22;9146;48.074;11.968;2023-12-20T15:49:27;2.80;99.90
18043;DHT22;9146;48.074;11.968;2023-12-20T15:51:54;2.70;99.90
18043;DHT22;9146;48.074;11.968;2023-12-20T15:54:21;2.80;99.90
18043;DHT22;9146;48.074;11.968;2023-12-20T15:56:48;2.70;99.90
18043;DHT22;9146;48.074;11.968;2023-12-20T15:59:15;2.70;99.90
18043;DHT22;9146;48.074;11.968;2023-12-20T16:01:43;2.80;99.90
18043;DHT22;9146;48.074;11.968;2023-12-20T16:04:10;2.80;99.90
18043;DHT22;9146;48.074;11.968;2023-12-20T16:06:37;2.90;99.90
18043;DHT22;9146;48.074;11.968;2023-12-20T16:09:04;2.80;99.90
18043;DHT22;9146;48.074;11.968;2023-12-20T16:11:31;2.70;99.90
18043;DHT22;9146;48.074;11.968;2023-12-20T16:13:58;2.40;99.90
18043;DHT22;9146;48.074;11.968;2023-12-20T16:16:25;2.60;99.90
18043;DHT22;9146;48.074;11.968;2023-12-20T16:18:53;2.70;99.90
18043;DHT22;9146;48.074;11.968;2023-12-20T16:21:20;2.50;99.90
18043;DHT22;9146;48.074;11.968;2023-12-20T16:23:46;2.40;99.90
18043;DHT22;9146;48.074;11.968;2023-12-20T16:26:13;2.30;99.90
18043;DHT22;9146;48.074;11.968;2023-12-20T16:28:40;2.30;99.90
18043;DHT22;9146;48.074;11.968;2023-12-20T16:31:07;2.20;99.90
18043;DHT22;9146;48.074;11.968;2023-12-20T16:33:34;2.10;99.90
18043;DHT22;9146;48.074;11.968;2023-12-20T16:36:03;2.00;99.90